Terminal Aerodrome Forecast
Issued by NWS Pueblo, CO

Home | Current Version | Previous Version | Text Only | Print | Product List | Glossary On
Versions: 1 2 3 4 5 6 7 8 9 10 11 12 13 14 15 16 17 18 19 20 21 22 23 24 25 26 27 28 29 30 31
000
FTUS45 KPUB 270528
TAFCOS
TAF
KCOS 270528Z 2706/2806 VRB06KT P6SM SCT100 SCT200
     FM271200 35007KT P6SM BKN200
     FM271800 13009KT P6SM FEW110 SCT200
     FM272200 15010KT P6SM SCT100 BKN140
     FM280200 33012KT P6SM SCT100 BKN140=

USA.gov is the U.S. government's official web portal to all federal, state and local government web resources and services.